createdAt,value
2017-11-20T00:02:21.814Z,24.33
2017-11-20T00:04:50.063Z,26.93
2017-11-20T00:07:18.350Z,30.87
2017-11-20T00:09:47.347Z,24.10
2017-11-20T00:12:16.348Z,47.47
2017-11-20T00:14:44.623Z,20.00
2017-11-20T00:17:13.653Z,29.20
2017-11-20T00:19:41.904Z,24.83
2017-11-20T00:22:10.160Z,24.33
2017-11-20T00:24:38.512Z,23.47
2017-11-20T00:27:08.458Z,41.90
2017-11-20T00:29:37.519Z,43.63
2017-11-20T00:32:05.781Z,25.77
2017-11-20T00:34:34.034Z,28.10
2017-11-20T00:37:02.325Z,33.93
2017-11-20T00:39:30.569Z,35.70
2017-11-20T00:41:59.584Z,51.57
2017-11-20T00:44:27.824Z,28.00
2017-11-20T00:46:56.826Z,30.40
2017-11-20T00:49:26.728Z,25.50
2017-11-20T00:51:55.105Z,38.40
2017-11-20T00:54:23.483Z,39.57
2017-11-20T00:56:52.439Z,26.53
2017-11-20T00:59:20.693Z,37.23
2017-11-20T01:01:48.935Z,18.67
2017-11-20T01:04:18.006Z,31.43
2017-11-20T01:06:46.255Z,30.13
2017-11-20T01:09:24.446Z,30.30
2017-11-20T01:11:53.434Z,26.00
2017-11-20T01:14:21.715Z,33.03
2017-11-20T01:16:51.091Z,39.67
2017-11-20T01:19:19.349Z,20.57
2017-11-20T01:21:47.624Z,30.17
2017-11-20T01:24:16.902Z,30.13
2017-11-20T01:26:45.196Z,25.73
2017-11-20T01:29:13.465Z,22.50
2017-11-20T01:31:41.776Z,38.87
2017-11-20T01:34:10.026Z,22.77
2017-11-20T01:36:38.286Z,27.57
2017-11-20T01:39:06.515Z,27.03
2017-11-20T01:41:35.565Z,30.90
2017-11-20T01:44:03.807Z,24.07
2017-11-20T01:46:32.086Z,25.03
2017-11-20T01:49:00.354Z,26.00
2017-11-20T01:51:29.361Z,34.07
2017-11-20T01:53:57.675Z,19.23
2017-11-20T01:56:25.954Z,22.07
2017-11-20T01:58:54.205Z,26.20
2017-11-20T02:01:22.463Z,26.63
2017-11-20T02:03:50.738Z,29.10
2017-11-20T02:06:19.049Z,16.30
2017-11-20T02:08:47.285Z,19.60
2017-11-20T02:11:16.315Z,21.90
2017-11-20T02:13:44.563Z,34.83
2017-11-20T02:16:13.574Z,21.77
2017-11-20T02:18:41.884Z,23.27
2017-11-20T02:21:10.126Z,22.60
2017-11-20T02:23:38.405Z,39.50
2017-11-20T02:26:07.416Z,27.33
2017-11-20T02:28:35.664Z,25.73
2017-11-20T02:31:03.984Z,24.73
2017-11-20T02:33:32.271Z,32.83
2017-11-20T02:36:00.563Z,32.90
2017-11-20T02:38:28.859Z,26.80
2017-11-20T02:40:57.144Z,37.67
2017-11-20T02:43:25.429Z,25.77
2017-11-20T02:45:54.463Z,41.77
2017-11-20T02:48:23.103Z,42.40
2017-11-20T02:50:51.386Z,32.90
2017-11-20T02:53:20.411Z,36.80
2017-11-20T02:55:48.708Z,31.97
2017-11-20T02:58:16.994Z,45.13
2017-11-20T03:00:46.165Z,29.93
2017-11-20T03:03:14.498Z,39.17
2017-11-20T03:05:43.547Z,46.07
2017-11-20T03:08:11.800Z,40.83
2017-11-20T03:10:40.094Z,34.27
2017-11-20T03:13:08.383Z,48.43
2017-11-20T03:15:36.625Z,38.20
2017-11-20T03:18:05.715Z,36.37
2017-11-20T03:20:34.748Z,55.33
2017-11-20T03:23:03.030Z,57.00
2017-11-20T03:25:31.348Z,51.93
2017-11-20T03:27:59.627Z,36.23
2017-11-20T03:30:27.934Z,44.17
2017-11-20T03:32:56.937Z,45.20
2017-11-20T03:35:25.169Z,47.33
2017-11-20T03:37:54.204Z,51.47
2017-11-20T03:40:22.449Z,29.70
2017-11-20T03:42:50.719Z,50.53
2017-11-20T03:45:18.969Z,42.83
2017-11-20T03:47:47.234Z,39.97
2017-11-20T03:50:15.465Z,32.07
2017-11-20T03:52:44.519Z,22.83
2017-11-20T03:55:13.057Z,37.90
2017-11-20T03:57:41.267Z,28.63
2017-11-20T04:00:09.516Z,32.93
2017-11-20T04:02:37.790Z,33.47
2017-11-20T04:05:06.808Z,22.80
2017-11-20T04:07:35.030Z,33.93
2017-11-20T04:10:03.425Z,15.53
2017-11-20T04:12:32.458Z,27.93
2017-11-20T04:15:00.726Z,33.13
2017-11-20T04:17:29.726Z,21.80
2017-11-20T04:19:57.973Z,17.00
2017-11-20T04:22:26.521Z,27.00
2017-11-20T04:24:54.782Z,23.60
2017-11-20T04:27:23.029Z,15.83
2017-11-20T04:29:52.047Z,19.77
2017-11-20T04:32:20.351Z,22.90
2017-11-20T04:34:48.645Z,13.07
2017-11-20T04:37:16.892Z,18.30
2017-11-20T04:39:45.172Z,15.07
2017-11-20T04:42:13.427Z,16.33
2017-11-20T04:44:41.701Z,19.23
2017-11-20T04:47:09.967Z,20.30
2017-11-20T04:49:38.288Z,32.43
2017-11-20T04:52:07.458Z,21.30
2017-11-20T04:54:35.695Z,20.93
2017-11-20T04:57:03.944Z,23.33
2017-11-20T04:59:32.328Z,20.83
2017-11-20T05:02:00.695Z,20.60
2017-11-20T05:04:29.013Z,24.53
2017-11-20T05:06:57.239Z,18.97
2017-11-20T05:09:25.496Z,26.50
2017-11-20T05:11:53.743Z,31.50
2017-11-20T05:14:22.796Z,30.77
2017-11-20T05:16:51.049Z,41.73
2017-11-20T05:19:19.397Z,30.43
2017-11-20T05:21:47.638Z,31.70
2017-11-20T05:24:15.901Z,33.67
2017-11-20T05:26:44.165Z,22.27
2017-11-20T05:29:12.425Z,28.33
2017-11-20T05:31:41.436Z,20.07
2017-11-20T05:34:09.754Z,33.47
2017-11-20T05:36:38.014Z,32.97
2017-11-20T05:39:06.859Z,22.13
2017-11-20T05:41:35.171Z,17.00
2017-11-20T05:44:03.410Z,25.93
2017-11-20T05:46:32.440Z,25.43
2017-11-20T05:49:00.698Z,29.23
2017-11-20T05:51:29.022Z,38.97
2017-11-20T05:53:57.283Z,43.00
2017-11-20T05:56:25.701Z,20.23
2017-11-20T05:58:53.929Z,18.80
2017-11-20T06:01:22.219Z,39.07
2017-11-20T06:03:50.511Z,19.97
2017-11-20T06:06:18.846Z,33.47
2017-11-20T06:08:47.091Z,34.10
2017-11-20T06:11:15.375Z,27.53
2017-11-20T06:13:44.375Z,36.93
2017-11-20T06:16:13.432Z,24.10
2017-11-20T06:18:41.710Z,36.10
2017-11-20T06:21:10.445Z,30.97
2017-11-20T06:23:38.709Z,19.87
2017-11-20T06:26:07.781Z,40.43
2017-11-20T06:28:36.048Z,24.90
2017-11-20T06:31:04.281Z,38.03
2017-11-20T06:33:32.606Z,35.30
2017-11-20T06:36:00.856Z,37.10
2017-11-20T06:38:29.590Z,32.83
2017-11-20T06:40:57.995Z,25.03
2017-11-20T06:43:27.025Z,22.57
2017-11-20T06:45:55.289Z,30.30
2017-11-20T06:48:23.636Z,18.23
2017-11-20T06:50:52.680Z,32.57
2017-11-20T06:53:20.980Z,32.43
2017-11-20T06:55:49.246Z,36.40
2017-11-20T06:58:17.497Z,30.30
2017-11-20T07:00:45.748Z,23.90
2017-11-20T07:03:14.085Z,22.37
2017-11-20T07:05:42.387Z,30.50
2017-11-20T07:08:12.145Z,30.50
2017-11-20T07:10:40.374Z,25.23
2017-11-20T07:13:09.419Z,17.83
2017-11-20T07:15:37.673Z,20.13
2017-11-20T07:18:05.977Z,60.57
2017-11-20T07:20:38.180Z,34.73
2017-11-20T07:23:06.466Z,25.47
2017-11-20T07:25:58.363Z,29.20
2017-11-20T07:28:38.450Z,50.07
2017-11-20T07:31:29.404Z,23.27
2017-11-20T07:34:10.388Z,31.73
2017-11-20T07:36:50.549Z,34.23
2017-11-20T07:39:35.648Z,28.93
2017-11-20T07:42:04.361Z,37.73
2017-11-20T07:44:34.629Z,37.87
2017-11-20T07:47:02.881Z,33.30
2017-11-20T07:49:31.903Z,30.00
2017-11-20T07:52:00.170Z,39.23
2017-11-20T07:54:28.428Z,31.13
2017-11-20T07:56:56.700Z,33.00
2017-11-20T07:59:25.699Z,33.97
2017-11-20T08:01:54.012Z,42.70
2017-11-20T08:04:22.253Z,25.33
2017-11-20T08:06:51.444Z,29.43
2017-11-20T08:09:20.473Z,31.27
2017-11-20T08:11:48.775Z,33.57
2017-11-20T08:14:17.054Z,32.50
2017-11-20T08:16:45.286Z,29.73
2017-11-20T08:19:13.624Z,36.67
2017-11-20T08:21:41.901Z,36.60
2017-11-20T08:24:10.205Z,19.87
2017-11-20T08:26:39.305Z,29.10
2017-11-20T08:29:09.001Z,16.60
2017-11-20T08:31:37.319Z,27.13
2017-11-20T08:34:05.706Z,18.33
2017-11-20T08:36:34.754Z,14.27
2017-11-20T08:39:03.703Z,16.63
2017-11-20T08:41:31.959Z,17.03
2017-11-20T08:44:00.209Z,16.87
2017-11-20T08:46:28.474Z,13.77
2017-11-20T08:48:56.730Z,11.17
2017-11-20T08:51:25.046Z,14.03
2017-11-20T08:53:53.514Z,11.90
2017-11-20T08:56:22.552Z,11.10
2017-11-20T08:58:50.885Z,21.93
2017-11-20T09:01:19.130Z,16.33
2017-11-20T09:03:47.477Z,16.00
2017-11-20T09:06:16.513Z,12.70
2017-11-20T09:08:45.694Z,17.90
2017-11-20T09:11:13.962Z,14.97
2017-11-20T09:13:43.130Z,14.83
2017-11-20T09:16:12.165Z,26.30
2017-11-20T09:18:40.403Z,34.97
2017-11-20T09:21:09.481Z,20.03
2017-11-20T09:23:37.730Z,18.63
2017-11-20T09:26:06.757Z,19.40
2017-11-20T09:28:35.816Z,32.83
2017-11-20T09:31:04.137Z,20.03
2017-11-20T09:33:32.395Z,25.73
2017-11-20T09:36:00.643Z,50.07
2017-11-20T09:38:28.955Z,19.20
2017-11-20T09:40:57.217Z,20.13
2017-11-20T09:43:25.512Z,27.60
2017-11-20T09:45:53.765Z,31.53
2017-11-20T09:48:22.068Z,33.40
2017-11-20T09:50:51.189Z,18.40
2017-11-20T09:53:19.401Z,18.10
2017-11-20T09:55:47.707Z,18.80
2017-11-20T09:58:16.000Z,26.50
2017-11-20T10:00:45.080Z,29.50
2017-11-20T10:03:13.375Z,21.57
2017-11-20T10:05:43.136Z,24.30
2017-11-20T10:08:11.419Z,13.60
2017-11-20T10:10:39.711Z,12.67
2017-11-20T10:13:08.007Z,18.23
2017-11-20T10:15:37.081Z,14.23
2017-11-20T10:18:05.357Z,13.60
2017-11-20T10:20:33.609Z,9.17
2017-11-20T10:23:01.932Z,15.03
2017-11-20T10:25:30.262Z,22.43
2017-11-20T10:27:59.704Z,11.17
2017-11-20T10:30:27.948Z,12.40
2017-11-20T10:32:56.880Z,13.90
2017-11-20T10:35:25.142Z,11.13
2017-11-20T10:37:53.487Z,24.60
2017-11-20T10:40:22.560Z,8.90
2017-11-20T10:42:51.242Z,8.40
2017-11-20T10:45:19.589Z,7.83
2017-11-20T10:47:47.873Z,8.17
2017-11-20T10:50:16.177Z,8.70
2017-11-20T10:52:45.309Z,27.50
2017-11-20T10:55:13.610Z,4.27
2017-11-20T10:57:41.970Z,8.00
2017-11-20T11:00:10.222Z,9.23
2017-11-20T11:02:38.795Z,11.50
2017-11-20T11:05:07.073Z,10.10
2017-11-20T11:07:35.344Z,14.33
2017-11-20T11:10:04.936Z,5.27
2017-11-20T11:12:33.219Z,6.30
2017-11-20T11:15:02.450Z,11.03
2017-11-20T11:17:32.027Z,11.27
2017-11-20T11:20:00.380Z,8.47
2017-11-20T11:22:28.614Z,8.27
2017-11-20T11:24:57.700Z,10.67
2017-11-20T11:27:27.067Z,5.53
2017-11-20T11:29:56.363Z,3.70
2017-11-20T11:32:24.602Z,5.07
2017-11-20T11:34:57.774Z,7.10
2017-11-20T11:37:26.873Z,3.33
2017-11-20T11:39:55.970Z,7.47
2017-11-20T11:42:24.245Z,4.47
2017-11-20T11:44:52.614Z,6.40
2017-11-20T11:47:20.929Z,4.20
2017-11-20T11:49:49.990Z,11.07
2017-11-20T11:52:18.297Z,4.33
2017-11-20T11:54:47.328Z,3.10
2017-11-20T11:57:15.609Z,4.90
2017-11-20T11:59:43.954Z,2.63
2017-11-20T12:02:13.335Z,3.23
2017-11-20T12:04:42.432Z,2.57
2017-11-20T12:07:12.193Z,5.30
2017-11-20T12:09:40.573Z,3.10
2017-11-20T12:12:08.877Z,4.40
2017-11-20T12:14:37.152Z,5.43
2017-11-20T12:17:06.788Z,2.43
2017-11-20T12:19:35.036Z,1.93
2017-11-20T12:22:03.915Z,1.70
2017-11-20T12:24:33.798Z,3.57
2017-11-20T12:27:02.997Z,3.63
2017-11-20T12:29:31.374Z,3.63
2017-11-20T12:32:00.665Z,5.33
2017-11-20T12:34:31.295Z,4.10
2017-11-20T12:36:59.641Z,7.43
2017-11-20T12:39:28.003Z,9.10
2017-11-20T12:41:56.233Z,5.07
2017-11-20T12:44:24.564Z,5.00
2017-11-20T12:46:53.020Z,9.37
2017-11-20T12:49:22.020Z,5.33
2017-11-20T12:51:50.275Z,6.40
2017-11-20T12:54:19.433Z,2.37
2017-11-20T12:56:48.604Z,3.33
2017-11-20T12:59:16.927Z,3.17
2017-11-20T13:01:45.948Z,2.57
2017-11-20T13:04:14.325Z,5.10
2017-11-20T13:06:42.546Z,11.93
2017-11-20T13:09:10.819Z,10.33
2017-11-20T13:11:39.099Z,6.00
2017-11-20T13:14:07.429Z,3.70
2017-11-20T13:16:36.509Z,11.53
2017-11-20T13:19:05.558Z,4.70
2017-11-20T13:21:34.725Z,6.03
2017-11-20T13:24:02.991Z,5.17
2017-11-20T13:26:32.267Z,11.43
2017-11-20T13:29:01.705Z,8.90
2017-11-20T13:31:31.363Z,3.20
2017-11-20T13:33:59.732Z,4.90
2017-11-20T13:36:28.037Z,9.50
2017-11-20T13:38:57.381Z,2.67
2017-11-20T13:41:25.667Z,2.23
2017-11-20T13:43:53.932Z,4.20
2017-11-20T13:46:22.974Z,19.23
2017-11-20T13:48:51.307Z,2.50
2017-11-20T13:51:19.615Z,5.70
2017-11-20T13:53:47.887Z,5.93
2017-11-20T13:56:16.197Z,4.27
2017-11-20T13:58:44.473Z,3.23
2017-11-20T14:01:12.797Z,2.40
2017-11-20T14:03:41.808Z,1.93
2017-11-20T14:06:21.636Z,6.37
2017-11-20T14:08:49.909Z,4.70
2017-11-20T14:11:18.572Z,5.37
2017-11-20T14:13:48.934Z,4.20
2017-11-20T14:16:17.244Z,5.40
2017-11-20T14:18:45.493Z,2.27
2017-11-20T14:21:13.765Z,8.40
2017-11-20T14:23:42.931Z,4.33
2017-11-20T14:26:11.197Z,2.60
2017-11-20T14:28:39.508Z,9.40
2017-11-20T14:31:07.766Z,2.53
2017-11-20T14:33:36.052Z,2.60
2017-11-20T14:36:04.329Z,8.93
2017-11-20T14:38:33.475Z,3.83
2017-11-20T14:41:02.106Z,4.33
2017-11-20T14:43:30.388Z,9.30
2017-11-20T14:45:58.681Z,2.90
2017-11-20T14:48:32.674Z,5.50
2017-11-20T14:51:03.389Z,9.73
2017-11-20T14:53:32.822Z,5.33
2017-11-20T14:56:01.054Z,3.43
2017-11-20T14:58:29.391Z,5.40
2017-11-20T15:00:57.765Z,4.70
2017-11-20T15:03:26.093Z,8.17
2017-11-20T15:05:54.456Z,5.40
2017-11-20T15:08:22.784Z,4.10
2017-11-20T15:10:51.862Z,9.23
2017-11-20T15:13:20.943Z,4.67
2017-11-20T15:15:50.061Z,7.37
2017-11-20T15:18:19.112Z,8.00
2017-11-20T15:20:47.425Z,6.23
2017-11-20T15:23:15.724Z,3.10
2017-11-20T15:25:46.322Z,10.60
2017-11-20T15:28:15.496Z,6.90
2017-11-20T15:30:46.893Z,11.07
2017-11-20T15:33:15.977Z,6.27
2017-11-20T15:35:45.798Z,8.50
2017-11-20T15:38:14.120Z,11.40
2017-11-20T15:40:44.078Z,7.67
2017-11-20T15:43:13.183Z,6.57
2017-11-20T15:45:41.484Z,7.27
2017-11-20T15:48:10.712Z,12.50
2017-11-20T15:50:39.783Z,9.47
2017-11-20T15:53:08.037Z,6.70
2017-11-20T15:55:37.921Z,9.67
2017-11-20T15:58:06.212Z,14.13
2017-11-20T16:00:34.624Z,12.60
2017-11-20T16:03:03.701Z,12.77
2017-11-20T16:05:31.971Z,7.83
2017-11-20T16:08:00.291Z,7.57
2017-11-20T16:10:29.317Z,7.40
2017-11-20T16:12:57.766Z,6.50
2017-11-20T16:15:26.020Z,11.17
2017-11-20T16:17:54.304Z,8.53
2017-11-20T16:20:23.003Z,10.87
2017-11-20T16:22:51.223Z,6.20
2017-11-20T16:25:19.472Z,7.90
2017-11-20T16:27:48.413Z,13.60
2017-11-20T16:30:16.710Z,7.00
2017-11-20T16:32:44.941Z,4.23
2017-11-20T16:35:13.203Z,15.90
2017-11-20T16:37:42.233Z,13.23
2017-11-20T16:40:10.657Z,5.53
2017-11-20T16:42:39.908Z,6.70
2017-11-20T16:45:08.226Z,9.27
2017-11-20T16:47:36.586Z,9.43
2017-11-20T16:50:05.010Z,10.40
2017-11-20T16:52:34.122Z,6.03
2017-11-20T16:55:03.150Z,5.13
2017-11-20T16:57:43.267Z,6.67
2017-11-20T17:03:13.129Z,5.37
2017-11-20T17:05:42.184Z,6.90
2017-11-20T17:08:12.528Z,6.27
2017-11-20T17:10:40.780Z,5.63
2017-11-20T17:13:09.854Z,10.93
2017-11-20T17:15:38.181Z,5.10
2017-11-20T17:18:06.529Z,6.00
2017-11-20T17:20:35.588Z,5.30
2017-11-20T17:23:03.880Z,6.80
2017-11-20T17:25:32.179Z,8.60
2017-11-20T17:28:00.504Z,5.93
2017-11-20T17:30:28.779Z,11.63
2017-11-20T17:32:57.103Z,3.70
2017-11-20T17:35:25.409Z,4.93
2017-11-20T17:37:54.564Z,5.27
2017-11-20T17:40:22.858Z,3.50
2017-11-20T17:42:51.122Z,4.67
2017-11-20T17:45:19.425Z,4.00
2017-11-20T17:47:47.688Z,5.20
2017-11-20T17:50:15.966Z,7.87
2017-11-20T17:52:44.244Z,8.40
2017-11-20T17:55:12.521Z,9.47
2017-11-20T17:57:40.833Z,9.47
2017-11-20T18:00:09.861Z,3.97
2017-11-20T18:02:38.176Z,2.87
2017-11-20T18:05:06.446Z,5.97
2017-11-20T18:07:34.702Z,5.73
2017-11-20T18:10:02.975Z,4.70
2017-11-20T18:12:31.208Z,7.17
2017-11-20T18:15:00.818Z,11.03
2017-11-20T18:17:29.852Z,5.17
2017-11-20T18:19:58.140Z,4.20
2017-11-20T18:22:26.668Z,6.30
2017-11-20T18:24:54.928Z,3.23
2017-11-20T18:27:23.224Z,6.20
2017-11-20T18:29:51.504Z,6.17
2017-11-20T18:32:20.574Z,3.60
2017-11-20T18:34:48.981Z,4.43
2017-11-20T18:37:17.271Z,2.30
2017-11-20T18:39:46.307Z,2.40
2017-11-20T18:42:14.612Z,2.63
2017-11-20T18:44:42.910Z,3.03
2017-11-20T18:47:11.201Z,4.57
2017-11-20T18:49:39.463Z,4.30
2017-11-20T18:52:07.914Z,2.77
2017-11-20T18:54:37.017Z,3.67
2017-11-20T18:57:05.355Z,2.23
2017-11-20T18:59:34.424Z,3.40
2017-11-20T19:02:15.453Z,2.40
2017-11-20T19:04:55.516Z,5.43
2017-11-20T19:07:35.765Z,4.00
2017-11-20T19:10:04.485Z,2.50
2017-11-20T19:12:33.544Z,2.13
2017-11-20T19:15:02.746Z,2.80
2017-11-20T19:17:31.083Z,2.10
2017-11-20T19:20:00.153Z,2.03
2017-11-20T19:22:28.438Z,1.90
2017-11-20T19:24:56.929Z,2.87
2017-11-20T19:27:25.488Z,1.50
2017-11-20T19:29:53.847Z,2.30
2017-11-20T19:32:22.117Z,3.63
2017-11-20T19:34:52.873Z,2.07
2017-11-20T19:37:21.318Z,10.10
2017-11-20T19:39:50.387Z,1.60
2017-11-20T19:42:18.850Z,3.20
2017-11-20T19:44:47.930Z,3.40
2017-11-20T19:47:16.242Z,2.87
2017-11-20T19:49:44.484Z,3.10
2017-11-20T19:52:12.788Z,2.97
2017-11-20T19:54:41.046Z,2.30
2017-11-20T19:57:09.332Z,2.50
2017-11-20T19:59:38.524Z,1.80
2017-11-20T20:02:06.902Z,3.63
2017-11-20T20:04:36.241Z,2.10
2017-11-20T20:07:04.700Z,3.77
2017-11-20T20:09:32.970Z,2.10
2017-11-20T20:12:01.262Z,1.30
2017-11-20T20:14:30.366Z,2.60
2017-11-20T20:17:05.445Z,3.50
2017-11-20T20:19:34.559Z,4.10
2017-11-20T20:22:02.877Z,3.50
2017-11-20T20:24:31.273Z,2.80
2017-11-20T20:27:01.525Z,2.40
2017-11-20T20:29:29.910Z,5.93
2017-11-20T20:31:58.227Z,2.50
2017-11-20T20:34:27.528Z,4.97
2017-11-20T20:36:55.771Z,2.00
2017-11-20T20:39:24.626Z,4.87
2017-11-20T20:41:53.630Z,3.30
2017-11-20T20:44:21.943Z,2.70
2017-11-20T20:46:50.216Z,2.40
2017-11-20T20:49:18.513Z,2.23
2017-11-20T20:51:46.745Z,4.73
2017-11-20T20:54:15.785Z,2.63
2017-11-20T20:56:44.050Z,2.53
2017-11-20T20:59:12.426Z,4.50
2017-11-20T21:01:40.730Z,2.67
2017-11-20T21:04:09.782Z,2.13
2017-11-20T21:06:43.836Z,2.37
2017-11-20T21:09:12.135Z,2.33
2017-11-20T21:11:46.827Z,2.80
2017-11-20T21:14:15.094Z,2.27
2017-11-20T21:16:43.375Z,2.40
2017-11-20T21:19:11.648Z,2.27
2017-11-20T21:21:40.063Z,2.90
2017-11-20T21:24:08.406Z,2.60
2017-11-20T21:26:36.675Z,2.87
2017-11-20T21:29:05.096Z,3.50
2017-11-20T21:31:33.351Z,4.60
2017-11-20T21:34:02.678Z,4.03
2017-11-20T21:36:31.475Z,2.83
2017-11-20T21:39:00.604Z,4.83
2017-11-20T21:41:29.657Z,5.10
2017-11-20T21:43:58.774Z,2.87
2017-11-20T21:46:27.141Z,5.37
2017-11-20T21:48:55.408Z,3.53
2017-11-20T21:51:23.646Z,3.10
2017-11-20T21:53:51.894Z,4.17
2017-11-20T21:56:20.215Z,3.60
2017-11-20T21:58:48.703Z,4.23
2017-11-20T22:01:17.016Z,3.47
2017-11-20T22:03:45.355Z,3.30
2017-11-20T22:06:13.661Z,5.67
2017-11-20T22:08:41.963Z,5.50
2017-11-20T22:11:11.044Z,4.50
2017-11-20T22:13:39.381Z,2.80
2017-11-20T22:16:08.422Z,8.13
2017-11-20T22:18:36.685Z,2.90
2017-11-20T22:21:04.965Z,2.83
2017-11-20T22:23:33.191Z,3.37
2017-11-20T22:26:01.469Z,2.40
2017-11-20T22:28:29.722Z,2.63
2017-11-20T22:30:58.007Z,2.93
2017-11-20T22:33:26.277Z,3.47
2017-11-20T22:35:55.281Z,3.00
2017-11-20T22:38:23.617Z,2.87
2017-11-20T22:40:51.924Z,2.23
2017-11-20T22:43:20.198Z,4.00
2017-11-20T22:45:48.444Z,3.80
2017-11-20T22:48:16.716Z,3.03
2017-11-20T22:50:44.941Z,13.43
2017-11-20T22:53:13.215Z,1.83
2017-11-20T22:55:42.203Z,2.37
2017-11-20T22:58:11.227Z,3.10
2017-11-20T23:00:39.541Z,3.13
2017-11-20T23:03:07.832Z,1.83
2017-11-20T23:05:36.876Z,3.07
2017-11-20T23:08:05.169Z,2.47
2017-11-20T23:10:33.457Z,2.67
2017-11-20T23:13:01.783Z,4.70
2017-11-20T23:15:30.082Z,1.87
2017-11-20T23:17:58.331Z,2.57
2017-11-20T23:20:27.485Z,2.80
2017-11-20T23:22:55.743Z,2.47
2017-11-20T23:25:23.966Z,2.63
2017-11-20T23:27:52.210Z,3.57
2017-11-20T23:30:20.469Z,2.27
2017-11-20T23:32:48.840Z,2.70
2017-11-20T23:35:17.094Z,3.20
2017-11-20T23:37:46.142Z,2.43
2017-11-20T23:40:14.345Z,3.13
2017-11-20T23:42:42.607Z,2.67
2017-11-20T23:45:10.816Z,2.27
2017-11-20T23:47:39.829Z,5.30
2017-11-20T23:50:08.872Z,2.40
2017-11-20T23:52:37.142Z,2.53
2017-11-20T23:55:05.408Z,2.20
2017-11-20T23:57:33.622Z,3.37
